Terminal Aerodrome Forecast
Issued by NWS Cleveland, OH

Home | Current Version | Previous Version | Graphics & Text | Print | Product List | Glossary On
Versions: 1 2 3 4 5 6 7 8 9 10 11 12 13 14 15 16 17 18 19 20 21 22 23 24 25 26
869
FTUS41 KCLE 220253 AAA
TAFCLE
TAF AMD
KCLE 220253Z 2203/2306 24010KT P6SM SCT035 BKN080
     FM221000 20010KT P6SM VCSH BKN040
     FM221400 25010KT P6SM BKN040
     FM221800 26012G20KT P6SM SCT050
     FM230300 23005KT P6SM SCT120=

USA.gov is the U.S. government's official web portal to all federal, state and local government web resources and services.